createdAt,value
2022-09-03T00:02:23.190Z,38.63
2022-09-03T00:07:35.729Z,38.66
2022-09-03T00:12:43.677Z,38.50
2022-09-03T00:17:52.689Z,38.47
2022-09-03T00:23:01.088Z,38.46
2022-09-03T00:28:08.727Z,38.85
2022-09-03T00:33:15.442Z,39.26
2022-09-03T00:38:20.764Z,39.28
2022-09-03T00:43:38.304Z,39.14
2022-09-03T00:49:05.074Z,39.15
2022-09-03T00:54:19.297Z,37.99
2022-09-03T00:59:37.118Z,38.67
2022-09-03T01:04:52.935Z,39.28
2022-09-03T01:10:12.799Z,39.94
2022-09-03T01:15:27.519Z,40.65
2022-09-03T01:21:05.428Z,40.84
2022-09-03T01:26:24.696Z,41.21
2022-09-03T01:31:39.614Z,41.61
2022-09-03T01:36:49.996Z,42.20
2022-09-03T01:42:02.252Z,41.26
2022-09-03T01:47:18.213Z,41.75
2022-09-03T01:52:34.424Z,42.01
2022-09-03T01:57:49.519Z,40.04
2022-09-03T02:02:55.209Z,39.27
2022-09-03T02:08:00.754Z,39.76
2022-09-03T02:13:10.995Z,34.90
2022-09-03T02:18:20.054Z,35.20
2022-09-03T02:23:24.722Z,36.47
2022-09-03T02:28:32.991Z,33.67
2022-09-03T02:33:40.478Z,32.57
2022-09-03T02:38:45.211Z,33.31
2022-09-03T02:43:54.643Z,33.86
2022-09-03T02:48:59.955Z,36.57
2022-09-03T02:54:03.638Z,37.79
2022-09-03T02:59:09.519Z,39.38
2022-09-03T03:04:15.329Z,40.58
2022-09-03T03:09:19.171Z,44.42
2022-09-03T03:14:23.076Z,46.11
2022-09-03T03:19:28.357Z,47.94
2022-09-03T03:24:33.552Z,48.49
2022-09-03T03:29:37.139Z,50.16
2022-09-03T03:34:43.473Z,52.63
2022-09-03T03:39:47.086Z,52.16
2022-09-03T03:44:50.772Z,53.22
2022-09-03T03:49:56.902Z,54.62
2022-09-03T03:55:00.529Z,54.65
2022-09-03T04:00:04.869Z,56.78
2022-09-03T04:05:10.736Z,56.68
2022-09-03T04:10:15.260Z,54.64
2022-09-03T04:15:18.903Z,53.39
2022-09-03T04:20:24.138Z,53.45
2022-09-03T04:25:27.746Z,53.42
2022-09-03T04:30:31.369Z,54.24
2022-09-03T04:35:37.364Z,54.23
2022-09-03T04:40:40.992Z,54.78
2022-09-03T04:45:44.638Z,54.95
2022-09-03T04:50:49.864Z,56.26
2022-09-03T04:55:52.700Z,56.80
2022-09-03T05:00:56.449Z,55.64
2022-09-03T05:06:01.688Z,53.30
2022-09-03T05:11:05.135Z,53.44
2022-09-03T05:16:10.260Z,54.31
2022-09-03T05:21:15.333Z,55.81
2022-09-03T05:26:20.743Z,54.66
2022-09-03T05:31:25.651Z,55.14
2022-09-03T05:36:32.709Z,55.57
2022-09-03T05:41:36.429Z,55.74
2022-09-03T05:46:40.020Z,56.22
2022-09-03T05:51:46.666Z,57.60
2022-09-03T05:56:51.044Z,57.43
2022-09-03T06:01:58.013Z,57.94
2022-09-03T06:07:03.378Z,58.57
2022-09-03T06:12:07.147Z,58.17
2022-09-03T06:17:10.782Z,58.32
2022-09-03T06:22:15.986Z,59.02
2022-09-03T06:27:20.337Z,59.45
2022-09-03T06:32:23.893Z,59.01
2022-09-03T06:37:29.117Z,59.67
2022-09-03T06:42:32.717Z,59.44
2022-09-03T06:47:36.323Z,59.58
2022-09-03T06:52:41.545Z,60.26
2022-09-03T06:57:45.111Z,60.13
2022-09-03T07:02:48.711Z,60.11
2022-09-03T07:07:53.905Z,60.28
2022-09-03T07:12:58.185Z,60.11
2022-09-03T07:18:01.828Z,60.47
2022-09-03T07:23:07.951Z,62.52
2022-09-03T07:28:11.520Z,62.53
2022-09-03T07:33:15.083Z,62.63
2022-09-03T07:38:20.859Z,62.59
2022-09-03T07:43:24.472Z,61.69
2022-09-03T07:48:28.267Z,63.18
2022-09-03T07:53:33.494Z,63.57
2022-09-03T07:58:38.399Z,63.24
2022-09-03T08:03:45.325Z,63.85
2022-09-03T08:08:58.689Z,65.00
2022-09-03T08:14:07.957Z,64.28
2022-09-03T08:19:12.038Z,64.52
2022-09-03T08:24:19.131Z,65.11
2022-09-03T08:29:23.089Z,64.43
2022-09-03T08:34:26.665Z,64.91
2022-09-03T08:39:31.952Z,65.02
2022-09-03T08:44:43.944Z,65.90
2022-09-03T08:49:52.375Z,65.55
2022-09-03T08:55:09.145Z,66.71
2022-09-03T09:00:13.672Z,65.79
2022-09-03T09:05:21.403Z,65.97
2022-09-03T09:10:35.974Z,65.62
2022-09-03T09:15:49.520Z,66.26
2022-09-03T09:21:00.159Z,66.00
2022-09-03T09:26:08.234Z,65.63
2022-09-03T09:31:14.872Z,65.35
2022-09-03T09:36:19.275Z,65.26
2022-09-03T09:41:29.553Z,65.39
2022-09-03T09:46:37.421Z,66.73
2022-09-03T09:51:41.148Z,65.81
2022-09-03T09:56:47.191Z,66.49
2022-09-03T10:01:50.848Z,66.79
2022-09-03T10:06:56.483Z,66.51
2022-09-03T10:12:10.550Z,67.08
2022-09-03T10:17:19.877Z,67.55
2022-09-03T10:22:24.582Z,67.23
2022-09-03T10:27:32.156Z,67.05
2022-09-03T10:32:48.569Z,68.30
2022-09-03T10:38:00.366Z,67.39
2022-09-03T10:43:24.194Z,67.85
2022-09-03T10:48:55.296Z,67.68
2022-09-03T10:54:20.174Z,68.09
2022-09-03T10:59:39.801Z,68.37
2022-09-03T11:04:52.929Z,68.07
2022-09-03T11:10:02.079Z,68.04
2022-09-03T11:15:14.659Z,68.25
2022-09-03T11:20:21.249Z,67.93
2022-09-03T11:25:28.476Z,68.25
2022-09-03T11:30:41.196Z,68.38
2022-09-03T11:35:44.860Z,67.98
2022-09-03T11:41:00.822Z,68.62
2022-09-03T11:46:07.667Z,68.57
2022-09-03T11:51:33.286Z,68.36
2022-09-03T11:56:37.239Z,67.63
2022-09-03T12:01:45.163Z,68.81
2022-09-03T12:07:12.011Z,68.66
2022-09-03T12:12:40.108Z,68.65
2022-09-03T12:17:53.824Z,68.08
2022-09-03T12:22:57.391Z,68.18
2022-09-03T12:28:03.307Z,68.51
2022-09-03T12:33:09.921Z,68.91
2022-09-03T12:38:18.546Z,69.18
2022-09-03T12:43:47.581Z,69.29
2022-09-03T12:54:21.253Z,68.82
2022-09-03T12:59:27.139Z,69.32
2022-09-03T13:04:32.986Z,70.95
2022-09-03T13:09:39.352Z,70.16
2022-09-03T13:14:48.144Z,70.26
2022-09-03T13:20:21.061Z,69.06
2022-09-03T13:25:29.917Z,70.24
2022-09-03T13:30:42.139Z,70.27
2022-09-03T13:35:51.968Z,71.05
2022-09-03T13:40:59.126Z,70.57
2022-09-03T13:46:08.056Z,71.25
2022-09-03T13:51:19.247Z,71.71
2022-09-03T13:56:33.517Z,71.66
2022-09-03T14:01:52.978Z,71.89
2022-09-03T14:07:03.767Z,71.39
2022-09-03T14:12:17.927Z,72.01
2022-09-03T14:17:38.300Z,71.75
2022-09-03T14:22:53.166Z,71.20
2022-09-03T14:28:14.287Z,70.22
2022-09-03T14:33:24.275Z,70.38
2022-09-03T14:38:47.414Z,70.98
2022-09-03T14:44:16.950Z,69.97
2022-09-03T14:49:49.827Z,68.72
2022-09-03T14:55:15.708Z,67.83
2022-09-03T15:00:22.024Z,67.83
2022-09-03T15:05:57.471Z,66.93
2022-09-03T15:11:04.934Z,65.44
2022-09-03T15:16:22.972Z,64.39
2022-09-03T15:21:41.083Z,63.02
2022-09-03T15:26:57.504Z,60.98
2022-09-03T15:32:10.274Z,58.09
2022-09-03T15:37:23.981Z,55.97
2022-09-03T15:42:30.582Z,54.90
2022-09-03T15:47:52.294Z,53.69
2022-09-03T15:53:02.931Z,52.59
2022-09-03T15:58:21.767Z,50.85
2022-09-03T16:03:37.780Z,49.64
2022-09-03T16:08:48.212Z,48.57
2022-09-03T16:14:07.270Z,46.34
2022-09-03T16:19:17.987Z,45.92
2022-09-03T16:24:25.393Z,45.93
2022-09-03T16:29:32.165Z,44.44
2022-09-03T16:34:44.181Z,42.88
2022-09-03T16:39:56.495Z,42.75
2022-09-03T16:45:11.558Z,42.98
2022-09-03T16:50:29.065Z,41.33
2022-09-03T16:55:49.071Z,41.26
2022-09-03T17:01:14.794Z,40.17
2022-09-03T17:06:55.712Z,39.82
2022-09-03T17:12:13.705Z,40.18
2022-09-03T17:17:32.819Z,39.03
2022-09-03T17:22:49.482Z,39.32
2022-09-03T17:28:05.435Z,37.90
2022-09-03T17:33:30.975Z,36.40
2022-09-03T17:39:01.207Z,37.02
2022-09-03T17:44:11.704Z,36.79
2022-09-03T17:49:22.405Z,37.44
2022-09-03T17:54:41.801Z,36.66
2022-09-03T17:59:52.889Z,37.40
2022-09-03T18:05:04.474Z,37.75
2022-09-03T18:10:24.153Z,37.99
2022-09-03T18:15:31.793Z,36.54
2022-09-03T18:20:45.867Z,36.13
2022-09-03T18:25:55.053Z,36.00
2022-09-03T18:30:59.354Z,35.89
2022-09-03T18:36:05.925Z,34.68
2022-09-03T18:41:22.745Z,35.51
2022-09-03T18:52:05.924Z,34.26
2022-09-03T18:57:18.134Z,34.16
2022-09-03T19:02:31.015Z,34.67
2022-09-03T19:07:48.130Z,34.84
2022-09-03T19:13:09.018Z,33.72
2022-09-03T19:18:31.232Z,33.72
2022-09-03T19:23:36.736Z,34.23
2022-09-03T19:28:45.985Z,33.67
2022-09-03T19:34:01.649Z,33.63
2022-09-03T19:39:24.390Z,33.93
2022-09-03T19:44:41.969Z,33.83
2022-09-03T19:49:58.062Z,33.15
2022-09-03T19:55:03.758Z,33.67
2022-09-03T20:00:08.309Z,34.41
2022-09-03T20:05:17.648Z,35.40
2022-09-03T20:10:23.095Z,35.76
2022-09-03T20:15:36.036Z,35.59
2022-09-03T20:20:49.793Z,34.91
2022-09-03T20:26:13.557Z,34.70
2022-09-03T20:31:23.697Z,34.39
2022-09-03T20:36:35.266Z,34.30
2022-09-03T20:41:49.437Z,34.22
2022-09-03T20:47:05.547Z,33.22
2022-09-03T20:52:16.041Z,33.94
2022-09-03T20:57:43.157Z,33.44
2022-09-03T21:03:05.431Z,33.38
2022-09-03T21:08:18.348Z,34.21
2022-09-03T21:13:38.308Z,34.50
2022-09-03T21:18:53.044Z,33.74
2022-09-03T21:24:05.941Z,33.60
2022-09-03T21:29:22.382Z,33.53
2022-09-03T21:34:31.065Z,32.41
2022-09-03T21:39:50.269Z,32.19
2022-09-03T21:45:04.658Z,31.96
2022-09-03T21:50:18.441Z,31.66
2022-09-03T21:55:28.199Z,31.84
2022-09-03T22:00:33.455Z,31.18
2022-09-03T22:05:48.457Z,31.23
2022-09-03T22:10:59.774Z,31.24
2022-09-03T22:16:13.032Z,30.98
2022-09-03T22:21:20.922Z,28.46
2022-09-03T22:26:33.437Z,27.52
2022-09-03T22:31:48.488Z,27.55
2022-09-03T22:36:56.589Z,27.38
2022-09-03T22:42:20.936Z,27.18
2022-09-03T22:47:37.447Z,26.60
2022-09-03T22:52:45.399Z,26.33
2022-09-03T22:57:59.591Z,26.56
2022-09-03T23:03:09.792Z,26.33
2022-09-03T23:08:18.605Z,25.52
2022-09-03T23:13:26.015Z,26.31
2022-09-03T23:18:34.413Z,26.38
2022-09-03T23:23:42.989Z,25.57
2022-09-03T23:28:50.205Z,26.64
2022-09-03T23:33:55.857Z,26.79
2022-09-03T23:39:06.160Z,26.45
2022-09-03T23:44:26.299Z,27.05
2022-09-03T23:49:47.378Z,26.34
2022-09-03T23:54:58.654Z,27.29
